MAH weather

Menorca Airport
Menorca Island, Baleares, Spain

Public forecast

Using degrees Celsius for public forecast. Weather courtesy of forecast.io.

Current aviation weather report (METAR) for Menorca Airport

Retrieved 2019/10/13 23:30 UTC (8 minutes ago):

LEMH 132330Z AUTO 13005KT 3700 BR SCT001/// 21/21 Q1017

Aviation forecast (TAF) for Menorca Airport

Retrieved 2019/10/13 21:27 UTC (2 hours ago):

TAF LEMH 132000Z 1321/1421 10009KT 9999 SCT010 TX26/1412Z TN18/1406Z TEMPO 1322/1404 18007KT PROB30 TEMPO 1400/1406 3000 BR BKN010 BECMG 1409/1411 14012KT PROB30 TEMPO 1413/1421 FEW030TCU